Time;durP1;ratioP1;P1;durP2;ratioP2;P2;SDS_P1;SDS_P2;PMS_P1;PMS_P2;Temp;Humidity;BMP_temperature;BMP_pressure;BME280_temperature;BME280_humidity;BME280_pressure;Samples;Min_cycle;Max_cycle;Signal;HPM_P1;HPM_P2
2021/01/09 00:01:21;;;;;;;;;;;1.60;99.90;;;;;;5055304;28;20290;-71
2021/01/09 00:03:46;;;;;;;;;;;1.60;99.90;;;;;;5021841;28;19925;-71
2021/01/09 00:06:12;;;;;;;;;;;1.60;99.90;;;;;;5015466;28;20802;-71
2021/01/09 00:08:38;;;;;;;;;;;1.60;99.90;;;;;;4674605;28;10000103;-71
2021/01/09 00:11:03;;;;;;;;;;;1.60;99.90;;;;;;5023355;28;19947;-71
2021/01/09 00:13:29;;;;;;;;;;;1.50;99.90;;;;;;5053832;28;19924;-72
2021/01/09 00:15:57;;;;;;;;;;;1.50;99.90;;;;;;5007297;28;19917;-72
2021/01/09 00:18:22;;;;;;;;;;;1.60;99.90;;;;;;5021945;28;19996;-72
2021/01/09 00:20:48;;;;;;;;;;;1.60;99.90;;;;;;5019281;28;20579;-71
2021/01/09 00:23:14;;;;;;;;;;;1.50;99.90;;;;;;5022363;28;19940;-72
2021/01/09 00:25:42;;;;;;;;;;;1.60;99.90;;;;;;5021413;28;19927;-72
2021/01/09 00:28:09;;;;;;;;;;;1.60;99.90;;;;;;5021732;28;19936;-72
2021/01/09 00:30:35;;;;;;;;;;;1.60;99.90;;;;;;5023894;28;19917;-72
2021/01/09 00:33:00;;;;;;;;;;;1.50;99.90;;;;;;5023529;28;20346;-71
2021/01/09 00:35:26;;;;;;;;;;;1.50;99.90;;;;;;5025840;28;20255;-72
2021/01/09 00:37:52;;;;;;;;;;;1.50;99.90;;;;;;5040951;28;19909;-72
2021/01/09 00:40:17;;;;;;;;;;;1.50;99.90;;;;;;5040769;28;19991;-73
2021/01/09 00:42:47;;;;;;;;;;;1.50;99.90;;;;;;5026628;28;19909;-72
2021/01/09 00:45:15;;;;;;;;;;;1.50;99.90;;;;;;5040000;28;20274;-72
2021/01/09 00:47:41;;;;;;;;;;;1.50;99.90;;;;;;5058379;28;19912;-71
2021/01/09 00:50:07;;;;;;;;;;;1.50;99.90;;;;;;5024788;28;19909;-72
2021/01/09 00:52:32;;;;;;;;;;;1.50;99.90;;;;;;5017033;28;19920;-71
2021/01/09 00:54:58;;;;;;;;;;;1.50;99.90;;;;;;5014848;28;19917;-72
2021/01/09 00:57:23;;;;;;;;;;;1.50;99.90;;;;;;5026527;28;19920;-72
2021/01/09 00:59:50;;;;;;;;;;;1.50;99.90;;;;;;5026653;28;20353;-72
2021/01/09 01:02:18;;;;;;;;;;;1.50;99.90;;;;;;5013873;28;19909;-72
2021/01/09 01:04:46;;;;;;;;;;;1.60;99.90;;;;;;5013850;28;19921;-72
2021/01/09 01:07:11;;;;;;;;;;;1.50;99.90;;;;;;5013591;28;19913;-72
2021/01/09 01:09:39;;;;;;;;;;;1.50;99.90;;;;;;5017053;28;19916;-72
2021/01/09 01:12:05;;;;;;;;;;;1.50;99.90;;;;;;5026831;28;19975;-72
2021/01/09 01:14:31;;;;;;;;;;;1.50;99.90;;;;;;5020008;28;19913;-72
2021/01/09 01:16:56;;;;;;;;;;;1.50;99.90;;;;;;5030361;28;19963;-72
2021/01/09 01:19:24;;;;;;;;;;;1.60;99.90;;;;;;5014061;28;19917;-72
2021/01/09 01:21:49;;;;;;;;;;;1.50;99.90;;;;;;5015626;28;20055;-72
2021/01/09 01:24:17;;;;;;;;;;;1.50;99.90;;;;;;5013315;28;19929;-72
2021/01/09 01:26:43;;;;;;;;;;;1.50;99.90;;;;;;5013774;28;19924;-71
2021/01/09 01:29:11;;;;;;;;;;;1.50;99.90;;;;;;5013241;28;20010;-72
2021/01/09 01:31:39;;;;;;;;;;;1.50;99.90;;;;;;5013708;28;19913;-71
2021/01/09 01:34:04;;;;;;;;;;;1.50;99.90;;;;;;5059442;28;19919;-72
2021/01/09 01:36:32;;;;;;;;;;;1.50;99.90;;;;;;5025128;28;19917;-72
2021/01/09 01:38:58;;;;;;;;;;;1.50;99.90;;;;;;5013467;28;19923;-71
2021/01/09 01:41:28;;;;;;;;;;;1.50;99.90;;;;;;5013579;28;19917;-72
2021/01/09 01:43:56;;;;;;;;;;;1.50;99.90;;;;;;5013768;28;19917;-71
2021/01/09 01:46:21;;;;;;;;;;;1.50;99.90;;;;;;5017071;28;19924;-71
2021/01/09 01:48:49;;;;;;;;;;;1.40;99.90;;;;;;5017782;28;19917;-71
2021/01/09 01:51:17;;;;;;;;;;;1.40;99.90;;;;;;5016402;28;20346;-71
2021/01/09 01:53:45;;;;;;;;;;;1.40;99.90;;;;;;5019057;28;20326;-72
2021/01/09 01:56:12;;;;;;;;;;;1.40;99.90;;;;;;5049230;28;19928;-71
2021/01/09 01:58:39;;;;;;;;;;;1.40;99.90;;;;;;5017577;28;20470;-71
2021/01/09 02:01:05;;;;;;;;;;;1.40;99.90;;;;;;5016724;28;19995;-72
2021/01/09 02:03:30;;;;;;;;;;;1.40;99.90;;;;;;5016460;28;20338;-72
2021/01/09 02:06:10;;;;;;;;;;;1.40;99.90;;;;;;5028001;28;19943;-71
2021/01/09 02:08:39;;;;;;;;;;;1.40;99.90;;;;;;5031222;28;20548;-72
2021/01/09 02:11:07;;;;;;;;;;;1.40;99.90;;;;;;5020462;28;19913;-71
2021/01/09 02:13:37;;;;;;;;;;;1.40;99.90;;;;;;5017178;28;19964;-71
2021/01/09 02:16:03;;;;;;;;;;;1.40;99.90;;;;;;5038917;28;19970;-72
2021/01/09 02:18:28;;;;;;;;;;;1.40;99.90;;;;;;5048567;28;20346;-71
2021/01/09 02:20:58;;;;;;;;;;;1.30;99.90;;;;;;5049213;28;19928;-72
2021/01/09 02:23:26;;;;;;;;;;;1.40;99.90;;;;;;5030680;28;21816;-71
2021/01/09 02:25:54;;;;;;;;;;;1.40;99.90;;;;;;5048148;28;19913;-71
2021/01/09 02:28:20;;;;;;;;;;;1.30;99.90;;;;;;5017258;28;20645;-71
2021/01/09 02:30:47;;;;;;;;;;;1.30;99.90;;;;;;5016391;28;19918;-72
2021/01/09 02:33:14;;;;;;;;;;;1.30;99.90;;;;;;5048407;28;19975;-71
2021/01/09 02:35:39;;;;;;;;;;;1.30;99.90;;;;;;5017069;28;19924;-71
2021/01/09 02:38:10;;;;;;;;;;;1.40;99.90;;;;;;5016264;28;19913;-71
2021/01/09 02:40:39;;;;;;;;;;;1.40;99.90;;;;;;5049224;28;19959;-71
2021/01/09 02:43:07;;;;;;;;;;;1.40;99.90;;;;;;5016575;28;19948;-72
2021/01/09 02:45:32;;;;;;;;;;;1.40;99.90;;;;;;5032010;28;19928;-71
2021/01/09 02:48:00;;;;;;;;;;;1.40;99.90;;;;;;5017313;28;19920;-72
2021/01/09 02:50:26;;;;;;;;;;;1.30;99.90;;;;;;5015445;28;19944;-71
2021/01/09 02:52:51;;;;;;;;;;;1.40;99.90;;;;;;5015469;28;20343;-72
2021/01/09 02:55:17;;;;;;;;;;;1.40;99.90;;;;;;5018176;28;19913;-71
2021/01/09 02:57:42;;;;;;;;;;;1.40;99.90;;;;;;5016806;28;20499;-71
2021/01/09 03:00:08;;;;;;;;;;;1.40;99.90;;;;;;5014715;28;20353;-71
2021/01/09 03:02:34;;;;;;;;;;;1.40;99.90;;;;;;5016493;28;20552;-71
2021/01/09 03:04:59;;;;;;;;;;;1.40;99.90;;;;;;5015676;28;20624;-71
2021/01/09 03:07:27;;;;;;;;;;;1.40;99.90;;;;;;5030933;28;20310;-71
2021/01/09 03:09:53;;;;;;;;;;;1.40;99.90;;;;;;5015216;28;19913;-71
2021/01/09 03:12:18;;;;;;;;;;;1.40;99.90;;;;;;5018131;28;19924;-71
2021/01/09 03:14:44;;;;;;;;;;;1.40;99.90;;;;;;5016195;28;20011;-71
2021/01/09 03:17:12;;;;;;;;;;;1.40;99.90;;;;;;5016495;28;20360;-71
2021/01/09 03:19:37;;;;;;;;;;;1.40;99.90;;;;;;5015927;28;20239;-71
2021/01/09 03:22:03;;;;;;;;;;;1.40;99.90;;;;;;5017528;28;19982;-71
2021/01/09 03:24:28;;;;;;;;;;;1.40;99.90;;;;;;5015705;28;19931;-71
2021/01/09 03:26:54;;;;;;;;;;;1.40;99.90;;;;;;5013819;28;20378;-71
2021/01/09 03:29:22;;;;;;;;;;;1.40;99.90;;;;;;5014911;28;19956;-71
2021/01/09 03:31:50;;;;;;;;;;;1.40;99.90;;;;;;5017573;28;20277;-71
2021/01/09 03:34:15;;;;;;;;;;;1.40;99.90;;;;;;5016347;28;19968;-71
2021/01/09 03:36:41;;;;;;;;;;;1.40;99.90;;;;;;5014056;28;20334;-71
2021/01/09 03:39:06;;;;;;;;;;;1.40;99.90;;;;;;5016263;28;20420;-71
2021/01/09 03:41:34;;;;;;;;;;;1.40;99.90;;;;;;5029026;28;19916;-71
2021/01/09 03:44:00;;;;;;;;;;;1.30;99.90;;;;;;5024392;28;19921;-71
2021/01/09 03:46:25;;;;;;;;;;;1.30;99.90;;;;;;5015091;28;20338;-71
2021/01/09 03:48:51;;;;;;;;;;;1.30;99.90;;;;;;5016561;28;19944;-71
2021/01/09 03:51:16;;;;;;;;;;;1.30;99.90;;;;;;5014518;28;20484;-71
2021/01/09 03:53:42;;;;;;;;;;;1.30;99.90;;;;;;5017109;28;20258;-71
2021/01/09 03:56:07;;;;;;;;;;;1.30;99.90;;;;;;5015233;28;19916;-71
2021/01/09 03:58:33;;;;;;;;;;;1.30;99.90;;;;;;5016688;28;20052;-71
2021/01/09 04:01:00;;;;;;;;;;;1.30;99.90;;;;;;5014437;28;19923;-71
2021/01/09 04:03:28;;;;;;;;;;;1.30;99.90;;;;;;5013717;28;19917;-71
2021/01/09 04:05:55;;;;;;;;;;;1.20;99.90;;;;;;5021626;28;19913;-71
2021/01/09 04:08:21;;;;;;;;;;;1.30;99.90;;;;;;5025498;28;19963;-71
2021/01/09 04:10:47;;;;;;;;;;;1.30;99.90;;;;;;4680796;28;10000363;-71
2021/01/09 04:13:17;;;;;;;;;;;1.30;99.90;;;;;;5021810;28;20349;-71
2021/01/09 04:15:45;;;;;;;;;;;1.20;99.90;;;;;;5045777;28;19924;-70
2021/01/09 04:18:11;;;;;;;;;;;1.30;99.90;;;;;;5014449;28;19917;-71
2021/01/09 04:20:36;;;;;;;;;;;1.30;99.90;;;;;;5013623;28;20499;-70
2021/01/09 04:23:02;;;;;;;;;;;1.30;99.90;;;;;;5028664;28;20579;-70
2021/01/09 04:25:30;;;;;;;;;;;1.30;99.90;;;;;;5014216;28;19960;-70
2021/01/09 04:27:58;;;;;;;;;;;1.40;99.90;;;;;;5016222;28;20011;-70
2021/01/09 04:30:24;;;;;;;;;;;1.30;99.90;;;;;;5013525;28;20024;-70
2021/01/09 04:32:52;;;;;;;;;;;1.40;99.90;;;;;;5021597;28;20012;-70
2021/01/09 04:35:17;;;;;;;;;;;1.40;99.90;;;;;;5027545;28;20376;-71
2021/01/09 04:37:43;;;;;;;;;;;1.40;99.90;;;;;;5016244;28;19924;-70
2021/01/09 04:40:08;;;;;;;;;;;1.50;99.90;;;;;;5014284;28;20647;-71
2021/01/09 04:42:34;;;;;;;;;;;1.50;99.90;;;;;;5044972;28;20413;-70
2021/01/09 04:45:00;;;;;;;;;;;1.50;99.90;;;;;;5013639;28;19931;-71
2021/01/09 04:47:28;;;;;;;;;;;1.50;99.90;;;;;;5020887;28;19995;-70
2021/01/09 04:49:56;;;;;;;;;;;1.50;99.90;;;;;;5026816;28;21387;-71
2021/01/09 04:52:24;;;;;;;;;;;1.50;99.90;;;;;;5038291;28;20043;-71
2021/01/09 04:54:50;;;;;;;;;;;1.50;99.90;;;;;;5044578;28;20334;-70
2021/01/09 04:57:18;;;;;;;;;;;1.50;99.90;;;;;;5014146;28;20011;-70
2021/01/09 04:59:43;;;;;;;;;;;1.50;99.90;;;;;;5023924;28;19909;-71
2021/01/09 05:02:11;;;;;;;;;;;1.50;99.90;;;;;;5025464;28;19912;-70
2021/01/09 05:04:37;;;;;;;;;;;1.50;99.90;;;;;;5025538;28;20018;-71
2021/01/09 05:07:03;;;;;;;;;;;1.50;99.90;;;;;;5024479;28;20003;-71
2021/01/09 05:09:31;;;;;;;;;;;1.60;99.90;;;;;;5026535;28;19995;-71
2021/01/09 05:11:57;;;;;;;;;;;1.60;99.90;;;;;;5021208;28;19913;-70
2021/01/09 05:14:22;;;;;;;;;;;1.60;99.90;;;;;;5014602;28;19917;-70
2021/01/09 05:16:48;;;;;;;;;;;1.60;99.90;;;;;;5014708;28;19916;-70
2021/01/09 05:19:13;;;;;;;;;;;1.70;99.90;;;;;;5013677;28;19968;-70
2021/01/09 05:21:39;;;;;;;;;;;1.70;99.90;;;;;;5017661;28;20409;-71
2021/01/09 05:24:08;;;;;;;;;;;1.70;99.90;;;;;;5048938;28;20031;-70
2021/01/09 05:26:34;;;;;;;;;;;1.70;99.90;;;;;;5030749;28;21696;-70
2021/01/09 05:29:00;;;;;;;;;;;1.80;99.90;;;;;;5017498;28;19917;-70
2021/01/09 05:31:26;;;;;;;;;;;1.80;99.90;;;;;;5031609;28;19940;-70
2021/01/09 05:33:52;;;;;;;;;;;1.80;99.90;;;;;;5017913;28;19917;-70
2021/01/09 05:36:17;;;;;;;;;;;1.80;99.90;;;;;;5017183;28;20005;-70
2021/01/09 05:38:45;;;;;;;;;;;1.80;99.90;;;;;;5022148;28;19928;-71
2021/01/09 05:41:14;;;;;;;;;;;1.80;99.90;;;;;;5030291;28;19917;-71
2021/01/09 05:43:42;;;;;;;;;;;1.80;99.90;;;;;;5036781;28;19909;-70
2021/01/09 05:46:07;;;;;;;;;;;1.90;99.90;;;;;;5031754;28;20402;-70
2021/01/09 05:48:34;;;;;;;;;;;1.90;99.90;;;;;;5016345;28;20060;-70
2021/01/09 05:51:02;;;;;;;;;;;1.90;99.90;;;;;;5017075;28;20012;-71
2021/01/09 05:53:40;;;;;;;;;;;1.90;99.90;;;;;;5026276;28;19913;-71
2021/01/09 05:56:06;;;;;;;;;;;1.90;99.90;;;;;;5043281;28;19920;-71
2021/01/09 05:58:31;;;;;;;;;;;1.90;99.90;;;;;;5017701;28;19917;-70
2021/01/09 06:00:57;;;;;;;;;;;1.90;99.90;;;;;;5017803;28;20283;-69
2021/01/09 06:03:30;;;;;;;;;;;1.90;99.90;;;;;;5014599;28;19917;-71
2021/01/09 06:05:55;;;;;;;;;;;1.90;99.90;;;;;;5017136;28;19917;-71
2021/01/09 06:08:27;;;;;;;;;;;1.90;99.90;;;;;;5049906;28;20040;-71
2021/01/09 06:10:54;;;;;;;;;;;1.90;99.90;;;;;;5030529;28;19927;-70
2021/01/09 06:13:22;;;;;;;;;;;1.90;99.90;;;;;;5031646;28;20007;-71
2021/01/09 06:15:50;;;;;;;;;;;1.80;99.90;;;;;;5031199;28;19928;-70
2021/01/09 06:18:15;;;;;;;;;;;1.80;99.90;;;;;;5031376;28;19970;-70
2021/01/09 06:20:45;;;;;;;;;;;1.80;99.90;;;;;;5048833;28;20346;-70
2021/01/09 06:23:10;;;;;;;;;;;1.80;99.90;;;;;;5016679;28;19923;-70
2021/01/09 06:25:36;;;;;;;;;;;1.70;99.90;;;;;;5016323;28;19932;-70
2021/01/09 06:28:05;;;;;;;;;;;1.70;99.90;;;;;;5048739;28;20020;-71
2021/01/09 06:30:33;;;;;;;;;;;1.70;99.90;;;;;;5016209;28;19917;-70
2021/01/09 06:33:00;;;;;;;;;;;1.70;99.90;;;;;;5022246;28;19917;-71
2021/01/09 06:35:26;;;;;;;;;;;1.70;99.90;;;;;;5029794;28;19948;-71
2021/01/09 06:37:54;;;;;;;;;;;1.80;99.90;;;;;;5020146;28;20011;-71
2021/01/09 06:40:24;;;;;;;;;;;1.80;99.90;;;;;;5032073;28;19914;-70
2021/01/09 06:42:50;;;;;;;;;;;1.70;99.90;;;;;;5030536;28;19928;-70
2021/01/09 06:45:18;;;;;;;;;;;1.70;99.90;;;;;;5016192;28;19917;-70
2021/01/09 06:47:57;;;;;;;;;;;1.70;99.90;;;;;;5029765;28;19913;-70
2021/01/09 06:50:25;;;;;;;;;;;1.70;99.90;;;;;;5015552;28;19913;-70
2021/01/09 06:52:54;;;;;;;;;;;1.70;99.90;;;;;;5028761;28;19936;-70
2021/01/09 06:55:38;;;;;;;;;;;1.60;99.90;;;;;;5043324;28;20016;-70
2021/01/09 06:58:07;;;;;;;;;;;1.60;99.90;;;;;;5015553;28;19917;-70
2021/01/09 07:00:32;;;;;;;;;;;1.60;99.90;;;;;;5015139;28;19917;-70
2021/01/09 07:03:18;;;;;;;;;;;1.60;99.90;;;;;;5019163;28;19913;-70
2021/01/09 07:05:47;;;;;;;;;;;1.60;99.90;;;;;;5015337;28;19917;-70
2021/01/09 07:08:25;;;;;;;;;;;1.50;99.90;;;;;;5051071;28;19909;-70
2021/01/09 07:10:51;;;;;;;;;;;1.50;99.90;;;;;;5044716;28;20437;-70
2021/01/09 07:13:16;;;;;;;;;;;1.40;99.90;;;;;;5023396;28;19939;-70
2021/01/09 07:15:42;;;;;;;;;;;1.40;99.90;;;;;;5048589;28;19917;-70
2021/01/09 07:18:07;;;;;;;;;;;1.40;99.90;;;;;;5031403;28;19912;-70
2021/01/09 07:20:39;;;;;;;;;;;1.30;99.90;;;;;;5016673;28;19917;-70
2021/01/09 07:23:13;;;;;;;;;;;1.30;99.90;;;;;;5015274;28;20250;-70
2021/01/09 07:25:42;;;;;;;;;;;1.20;99.90;;;;;;5029603;28;19916;-70
2021/01/09 07:28:10;;;;;;;;;;;1.20;99.90;;;;;;5028513;28;19925;-70
2021/01/09 07:30:36;;;;;;;;;;;1.20;99.90;;;;;;5016015;28;19909;-70
2021/01/09 07:33:02;;;;;;;;;;;1.20;99.90;;;;;;5046419;28;19979;-70
2021/01/09 07:35:28;;;;;;;;;;;1.20;99.90;;;;;;5029067;28;19917;-70
2021/01/09 07:38:00;;;;;;;;;;;1.10;99.90;;;;;;5015756;28;20570;-70
2021/01/09 07:40:35;;;;;;;;;;;1.10;99.90;;;;;;5015535;28;19913;-70
2021/01/09 07:43:00;;;;;;;;;;;1.10;99.90;;;;;;5013753;28;20030;-70
2021/01/09 07:45:30;;;;;;;;;;;1.10;99.90;;;;;;5014618;28;20414;-70
2021/01/09 07:47:55;;;;;;;;;;;1.20;99.90;;;;;;5015138;28;19917;-70
2021/01/09 07:50:23;;;;;;;;;;;1.10;99.90;;;;;;5030804;28;19909;-70
2021/01/09 07:52:49;;;;;;;;;;;1.20;99.90;;;;;;5047603;28;19970;-70
2021/01/09 07:55:15;;;;;;;;;;;1.20;99.90;;;;;;5047592;28;19917;-70
2021/01/09 07:57:40;;;;;;;;;;;1.20;99.90;;;;;;5047623;28;19917;-70
2021/01/09 08:00:07;;;;;;;;;;;1.10;99.90;;;;;;5014131;28;19913;-70
2021/01/09 08:02:33;;;;;;;;;;;1.10;99.90;;;;;;5015074;28;19917;-70
2021/01/09 08:05:13;;;;;;;;;;;1.00;99.90;;;;;;5014558;28;19932;-70
2021/01/09 08:07:43;;;;;;;;;;;1.00;99.90;;;;;;5013971;28;20262;-70
2021/01/09 08:10:27;;;;;;;;;;;1.00;99.90;;;;;;5014429;28;20031;-70
2021/01/09 08:12:59;;;;;;;;;;;0.90;99.90;;;;;;5014658;28;19917;-70
2021/01/09 08:15:25;;;;;;;;;;;0.90;99.90;;;;;;5014806;28;19917;-70
2021/01/09 08:17:51;;;;;;;;;;;0.90;99.90;;;;;;5013600;28;19917;-70
2021/01/09 08:20:18;;;;;;;;;;;0.90;99.90;;;;;;5036734;28;20499;-70
2021/01/09 08:22:47;;;;;;;;;;;0.90;99.90;;;;;;5027103;28;19917;-70
2021/01/09 08:25:15;;;;;;;;;;;0.90;99.90;;;;;;5058633;28;19970;-70
2021/01/09 08:27:48;;;;;;;;;;;0.80;99.90;;;;;;5013037;28;19932;-70
2021/01/09 08:30:16;;;;;;;;;;;0.80;99.90;;;;;;5030169;28;20389;-70
2021/01/09 08:32:44;;;;;;;;;;;0.80;99.90;;;;;;5015073;28;19917;-70
2021/01/09 08:35:13;;;;;;;;;;;0.80;99.90;;;;;;5045358;28;19913;-70
2021/01/09 08:37:38;;;;;;;;;;;0.90;99.90;;;;;;5013909;28;19921;-70
2021/01/09 08:40:11;;;;;;;;;;;0.90;99.90;;;;;;5027940;28;20003;-70
2021/01/09 08:42:36;;;;;;;;;;;0.90;99.90;;;;;;5013513;28;19923;-70
2021/01/09 08:45:02;;;;;;;;;;;0.90;99.90;;;;;;5014252;28;20258;-70
2021/01/09 08:47:28;;;;;;;;;;;0.90;99.90;;;;;;5028522;28;20068;-70
2021/01/09 08:49:54;;;;;;;;;;;0.90;99.90;;;;;;5014401;28;19928;-70
2021/01/09 08:52:20;;;;;;;;;;;1.00;99.90;;;;;;5014054;28;19978;-70
2021/01/09 08:54:48;;;;;;;;;;;1.00;99.90;;;;;;5045875;28;20327;-70
2021/01/09 08:57:14;;;;;;;;;;;1.00;99.90;;;;;;5014288;28;19955;-70
2021/01/09 08:59:40;;;;;;;;;;;1.10;99.90;;;;;;5014202;28;19924;-70
2021/01/09 09:02:07;;;;;;;;;;;1.10;99.90;;;;;;5029149;28;19952;-70
2021/01/09 09:04:32;;;;;;;;;;;1.20;99.90;;;;;;5045954;28;20023;-70
2021/01/09 09:06:58;;;;;;;;;;;1.30;99.90;;;;;;5045939;28;19991;-70
2021/01/09 09:09:27;;;;;;;;;;;1.40;99.90;;;;;;5027224;28;19917;-70
2021/01/09 09:11:53;;;;;;;;;;;1.40;99.90;;;;;;5013390;28;19913;-70
2021/01/09 09:14:18;;;;;;;;;;;1.40;99.90;;;;;;5044698;28;19917;-70
2021/01/09 09:16:44;;;;;;;;;;;1.50;99.90;;;;;;5013052;28;19988;-70
2021/01/09 09:19:13;;;;;;;;;;;1.60;99.90;;;;;;5017745;28;19919;-70
2021/01/09 09:21:57;;;;;;;;;;;1.60;99.90;;;;;;5026040;28;20563;-70
2021/01/09 09:24:36;;;;;;;;;;;1.60;99.90;;;;;;5032767;28;20006;-73
2021/01/09 09:27:02;;;;;;;;;;;1.70;99.90;;;;;;5028482;28;19928;-72
2021/01/09 09:29:35;;;;;;;;;;;1.60;99.90;;;;;;5012818;28;19917;-73
2021/01/09 09:32:03;;;;;;;;;;;1.70;99.90;;;;;;5013213;28;19982;-71
2021/01/09 09:34:29;;;;;;;;;;;1.70;99.90;;;;;;5021434;28;19955;-70
2021/01/09 09:36:58;;;;;;;;;;;1.70;99.90;;;;;;5027026;28;19953;-70
2021/01/09 09:39:25;;;;;;;;;;;1.70;99.90;;;;;;5027057;28;20011;-70
2021/01/09 09:41:58;;;;;;;;;;;1.70;99.90;;;;;;5024876;28;19979;-71
2021/01/09 09:44:37;;;;;;;;;;;1.70;99.90;;;;;;5025667;28;19916;-70
2021/01/09 09:47:03;;;;;;;;;;;1.70;99.90;;;;;;5041493;28;20851;-70
2021/01/09 09:49:29;;;;;;;;;;;1.70;99.90;;;;;;5011917;28;19948;-70
2021/01/09 09:51:54;;;;;;;;;;;1.70;99.90;;;;;;5025832;28;19947;-70
2021/01/09 09:54:29;;;;;;;;;;;1.70;99.90;;;;;;5044576;28;20007;-70
2021/01/09 09:56:55;;;;;;;;;;;1.80;99.90;;;;;;5024513;28;19917;-70
2021/01/09 09:59:25;;;;;;;;;;;1.70;99.90;;;;;;5024869;28;20370;-70
2021/01/09 10:01:58;;;;;;;;;;;1.70;99.90;;;;;;5025137;28;19927;-74
2021/01/09 10:04:23;;;;;;;;;;;1.70;99.90;;;;;;5039209;28;19960;-74
2021/01/09 10:06:51;;;;;;;;;;;1.70;99.90;;;;;;5027049;28;19948;-74
2021/01/09 10:09:20;;;;;;;;;;;1.80;99.90;;;;;;5025580;28;19917;-70
2021/01/09 10:11:48;;;;;;;;;;;1.80;99.90;;;;;;5015693;28;19920;-71
2021/01/09 10:14:14;;;;;;;;;;;1.80;99.90;;;;;;5018056;28;19916;-70
2021/01/09 10:16:39;;;;;;;;;;;1.90;99.90;;;;;;5016306;28;20607;-70
2021/01/09 10:19:05;;;;;;;;;;;1.90;99.90;;;;;;5030424;28;19913;-70
2021/01/09 10:21:31;;;;;;;;;;;1.90;99.90;;;;;;5020453;28;20044;-70
2021/01/09 10:23:56;;;;;;;;;;;1.90;99.90;;;;;;5017362;28;20008;-70
2021/01/09 10:26:50;;;;;;;;;;;1.90;99.90;;;;;;5016240;28;19959;-70
2021/01/09 10:29:16;;;;;;;;;;;1.90;99.90;;;;;;5015242;28;19987;-70
2021/01/09 10:31:44;;;;;;;;;;;1.80;99.90;;;;;;5016161;28;20350;-70
2021/01/09 10:34:11;;;;;;;;;;;1.80;99.90;;;;;;5023114;28;20543;-70
2021/01/09 10:36:37;;;;;;;;;;;1.80;99.90;;;;;;5029437;28;19927;-70
2021/01/09 10:39:03;;;;;;;;;;;1.80;99.90;;;;;;5027522;28;19940;-70
2021/01/09 10:41:29;;;;;;;;;;;1.80;99.90;;;;;;5028756;28;19917;-70
2021/01/09 10:43:54;;;;;;;;;;;1.80;99.90;;;;;;5027480;28;19975;-70
2021/01/09 10:46:24;;;;;;;;;;;1.90;99.90;;;;;;5028493;28;20005;-70
2021/01/09 10:48:52;;;;;;;;;;;2.00;99.90;;;;;;5029403;28;19917;-72
2021/01/09 10:51:20;;;;;;;;;;;2.00;99.90;;;;;;5027862;28;19959;-70
2021/01/09 10:53:46;;;;;;;;;;;2.00;99.90;;;;;;5059128;28;20338;-71
2021/01/09 10:56:12;;;;;;;;;;;2.00;99.90;;;;;;5028178;28;20338;-71
2021/01/09 10:58:37;;;;;;;;;;;2.00;99.90;;;;;;5026671;28;19909;-70
2021/01/09 11:01:06;;;;;;;;;;;2.00;99.90;;;;;;5025985;28;19912;-70
2021/01/09 11:03:31;;;;;;;;;;;2.00;99.90;;;;;;5041755;28;19920;-70
2021/01/09 11:05:57;;;;;;;;;;;2.00;99.90;;;;;;5026268;28;20187;-70
2021/01/09 11:08:23;;;;;;;;;;;2.00;99.90;;;;;;5060512;28;19919;-70
2021/01/09 11:10:49;;;;;;;;;;;2.00;99.90;;;;;;5025176;28;19919;-70
2021/01/09 11:13:16;;;;;;;;;;;2.00;99.90;;;;;;5026500;28;19916;-70
2021/01/09 11:15:43;;;;;;;;;;;2.00;99.90;;;;;;5027245;28;19944;-70
2021/01/09 11:18:08;;;;;;;;;;;2.10;99.90;;;;;;5025255;28;20261;-71
2021/01/09 11:20:34;;;;;;;;;;;2.10;99.90;;;;;;5028075;28;19909;-70
2021/01/09 11:23:01;;;;;;;;;;;2.10;99.90;;;;;;5027098;28;20248;-70
2021/01/09 11:25:27;;;;;;;;;;;2.10;99.90;;;;;;5027398;28;19921;-70
2021/01/09 11:27:53;;;;;;;;;;;2.10;99.90;;;;;;5038216;28;20551;-70
2021/01/09 11:30:18;;;;;;;;;;;2.10;99.90;;;;;;5024758;28;20274;-71
2021/01/09 11:32:44;;;;;;;;;;;2.20;99.90;;;;;;5027740;28;19909;-70
2021/01/09 11:35:12;;;;;;;;;;;2.20;99.90;;;;;;5024420;28;20336;-70
2021/01/09 11:37:38;;;;;;;;;;;2.20;99.90;;;;;;5025351;28;19967;-70
2021/01/09 11:40:05;;;;;;;;;;;2.20;99.90;;;;;;5025857;28;19921;-70
2021/01/09 11:42:30;;;;;;;;;;;2.20;99.90;;;;;;5027133;28;20433;-70
2021/01/09 11:44:56;;;;;;;;;;;2.20;99.90;;;;;;5025052;28;19925;-71
2021/01/09 11:47:21;;;;;;;;;;;2.30;99.90;;;;;;5023774;28;19908;-70
2021/01/09 11:49:47;;;;;;;;;;;2.40;99.90;;;;;;5026471;28;19970;-70
2021/01/09 11:52:13;;;;;;;;;;;2.40;99.90;;;;;;5056862;28;19909;-70
2021/01/09 11:54:40;;;;;;;;;;;2.40;99.90;;;;;;5025363;28;19909;-70
2021/01/09 11:57:06;;;;;;;;;;;2.40;99.90;;;;;;5026099;28;19917;-70
2021/01/09 11:59:34;;;;;;;;;;;2.40;99.90;;;;;;5027250;28;19920;-70
2021/01/09 12:01:59;;;;;;;;;;;2.30;99.90;;;;;;5026287;28;19917;-70
2021/01/09 12:04:25;;;;;;;;;;;2.30;99.90;;;;;;5026455;28;19913;-71
2021/01/09 12:06:55;;;;;;;;;;;2.30;99.90;;;;;;5025705;28;20193;-70
2021/01/09 12:09:20;;;;;;;;;;;2.30;99.90;;;;;;5042016;28;19921;-71
2021/01/09 12:11:48;;;;;;;;;;;2.30;99.90;;;;;;4681002;28;10000584;-70
2021/01/09 12:14:13;;;;;;;;;;;2.30;99.90;;;;;;5025781;28;20354;-70
2021/01/09 12:16:41;;;;;;;;;;;2.30;99.90;;;;;;5026470;28;19917;-70
2021/01/09 12:19:09;;;;;;;;;;;2.20;99.90;;;;;;5024655;28;19927;-70
2021/01/09 12:21:37;;;;;;;;;;;2.10;99.90;;;;;;4677683;28;10000464;-70
2021/01/09 12:24:05;;;;;;;;;;;2.10;99.90;;;;;;5022652;28;19916;-70
2021/01/09 12:26:30;;;;;;;;;;;2.10;99.90;;;;;;5022055;28;19952;-70
2021/01/09 12:28:58;;;;;;;;;;;2.00;99.90;;;;;;5020630;28;20038;-70
2021/01/09 12:31:30;;;;;;;;;;;2.10;99.90;;;;;;5022228;28;19909;-70
2021/01/09 12:33:55;;;;;;;;;;;2.10;99.90;;;;;;5019734;28;19918;-71
2021/01/09 12:36:23;;;;;;;;;;;2.00;99.90;;;;;;5022251;28;19924;-70
2021/01/09 12:38:49;;;;;;;;;;;2.10;99.90;;;;;;5021259;28;19920;-70
2021/01/09 12:41:14;;;;;;;;;;;2.10;99.90;;;;;;5021555;28;20735;-71
2021/01/09 12:43:40;;;;;;;;;;;2.10;99.90;;;;;;5021706;28;19916;-70
2021/01/09 12:46:05;;;;;;;;;;;2.00;99.90;;;;;;5021670;28;20033;-70
2021/01/09 12:48:31;;;;;;;;;;;2.00;99.90;;;;;;5023153;28;19924;-71
2021/01/09 12:50:56;;;;;;;;;;;2.00;99.90;;;;;;5024030;28;20023;-70
2021/01/09 12:53:22;;;;;;;;;;;2.10;99.90;;;;;;4677591;28;10000067;-70
2021/01/09 12:55:48;;;;;;;;;;;2.10;99.90;;;;;;5051325;28;20370;-70
2021/01/09 12:58:13;;;;;;;;;;;2.10;99.90;;;;;;5020840;28;19917;-70
2021/01/09 13:00:39;;;;;;;;;;;2.10;99.90;;;;;;5022314;28;19955;-70
2021/01/09 13:03:05;;;;;;;;;;;2.10;99.90;;;;;;5023375;28;19978;-70
2021/01/09 13:05:30;;;;;;;;;;;2.00;99.90;;;;;;5053836;28;20014;-70
2021/01/09 13:07:56;;;;;;;;;;;2.00;99.90;;;;;;5020380;28;19920;-70
2021/01/09 13:10:21;;;;;;;;;;;2.00;99.90;;;;;;5021503;28;19913;-70
2021/01/09 13:12:49;;;;;;;;;;;2.00;99.90;;;;;;5039787;28;19924;-70
2021/01/09 13:15:15;;;;;;;;;;;1.90;99.90;;;;;;5022590;28;19947;-71
2021/01/09 13:17:40;;;;;;;;;;;2.00;99.90;;;;;;5025122;28;19952;-71
2021/01/09 13:20:06;;;;;;;;;;;2.00;99.90;;;;;;5025909;28;19913;-69
2021/01/09 13:22:32;;;;;;;;;;;2.00;99.90;;;;;;5025259;28;19916;-70
2021/01/09 13:24:59;;;;;;;;;;;2.00;99.90;;;;;;5025583;28;20000;-70
2021/01/09 13:27:25;;;;;;;;;;;2.00;99.90;;;;;;5025338;28;19924;-70
2021/01/09 13:29:51;;;;;;;;;;;1.90;99.90;;;;;;5024385;28;19913;-71
2021/01/09 13:32:22;;;;;;;;;;;2.00;99.90;;;;;;5027358;28;20022;-70
2021/01/09 13:34:48;;;;;;;;;;;1.90;99.90;;;;;;5025439;28;19919;-70
2021/01/09 13:37:15;;;;;;;;;;;1.90;99.90;;;;;;5024065;28;19913;-70
2021/01/09 13:39:40;;;;;;;;;;;1.80;99.90;;;;;;5021221;28;19923;-69
2021/01/09 13:42:06;;;;;;;;;;;1.80;99.90;;;;;;5024167;28;19917;-70
2021/01/09 13:44:34;;;;;;;;;;;1.70;99.90;;;;;;5040709;28;19927;-70
2021/01/09 13:46:59;;;;;;;;;;;1.70;99.90;;;;;;5027590;28;19944;-70
2021/01/09 13:49:25;;;;;;;;;;;1.70;99.90;;;;;;5029050;28;20246;-70
2021/01/09 13:51:51;;;;;;;;;;;1.60;99.90;;;;;;5030405;28;20339;-70
2021/01/09 13:54:16;;;;;;;;;;;1.70;99.90;;;;;;5020494;28;20343;-70
2021/01/09 13:56:45;;;;;;;;;;;1.70;99.90;;;;;;5026917;28;19920;-70
2021/01/09 13:59:14;;;;;;;;;;;1.60;99.90;;;;;;5026644;28;21407;-70
2021/01/09 14:01:45;;;;;;;;;;;1.70;99.90;;;;;;5026979;28;20334;-71
2021/01/09 14:04:12;;;;;;;;;;;1.70;99.90;;;;;;5026452;28;19921;-70
2021/01/09 14:06:38;;;;;;;;;;;1.70;99.90;;;;;;5044120;28;19913;-70
2021/01/09 14:09:04;;;;;;;;;;;1.80;99.90;;;;;;5024352;28;20055;-70
2021/01/09 14:11:34;;;;;;;;;;;1.80;99.90;;;;;;5059466;28;20562;-70
2021/01/09 14:14:02;;;;;;;;;;;1.90;99.90;;;;;;5027074;28;19975;-70
2021/01/09 14:16:28;;;;;;;;;;;1.90;99.90;;;;;;5028169;28;19943;-70
2021/01/09 14:18:54;;;;;;;;;;;1.90;99.90;;;;;;5028574;28;19917;-70
2021/01/09 14:21:23;;;;;;;;;;;1.90;99.90;;;;;;5026861;28;19935;-70
2021/01/09 14:23:48;;;;;;;;;;;1.90;99.90;;;;;;5027372;28;19945;-70
2021/01/09 14:26:14;;;;;;;;;;;2.00;99.90;;;;;;5027176;28;19920;-70
2021/01/09 14:28:40;;;;;;;;;;;2.00;99.90;;;;;;5027222;28;20269;-70